4XPAD LLHZ-LLHZ

Flight info

Callsign 4XPAD
Flight time 0h 22m
Altitude 2500
Route VFR SOUTH COAST
Aircraft C404/L-V/N

Departure

Time 2026-04-30 18:41
Airport Herzliya Airport (LLHZ)

Arrival

Time 2026-04-30 19:04
Airport Herzliya Airport (LLHZ)
Time Latitude Longitude Altitude Speed Heading
2026-04-30 18:39 32.17899 34.83823 120 ft 0 kts 11°
2026-04-30 18:40 32.17909 34.83824 119 ft 11 kts
2026-04-30 18:41 32.17981 34.83630 112 ft 55 kts 288°
2026-04-30 18:41 32.18165 34.83015 148 ft 95 kts 290°
2026-04-30 18:41 32.18412 34.82272 469 ft 98 kts 295°
2026-04-30 18:41 32.18683 34.81459 798 ft 107 kts 287°
2026-04-30 18:42 32.18584 34.80581 1086 ft 121 kts 234°
2026-04-30 18:42 32.17044 34.79588 1585 ft 132 kts 201°
2026-04-30 18:42 32.16147 34.79198 1623 ft 153 kts 203°
2026-04-30 18:45 32.04959 34.75391 1710 ft 172 kts 196°
2026-04-30 18:45 32.03803 34.75027 1713 ft 172 kts 196°
2026-04-30 18:45 32.02642 34.74658 1710 ft 173 kts 196°
2026-04-30 18:46 32.01477 34.74281 1709 ft 175 kts 197°
2026-04-30 18:46 32.00307 34.73900 1709 ft 173 kts 196°
2026-04-30 18:46 31.99146 34.73527 1711 ft 173 kts 196°
2026-04-30 18:46 31.97982 34.73152 1709 ft 174 kts 196°
2026-04-30 18:47 31.96800 34.72783 1703 ft 175 kts 196°
2026-04-30 18:47 31.95639 34.72419 1707 ft 175 kts 196°
2026-04-30 18:47 31.94468 34.72052 1702 ft 175 kts 196°
2026-04-30 18:47 31.93285 34.71693 1704 ft 176 kts 195°
2026-04-30 18:48 31.92100 34.71312 1701 ft 177 kts 196°
2026-04-30 18:48 31.90909 34.70939 1700 ft 177 kts 195°
2026-04-30 18:48 31.89739 34.70550 1704 ft 173 kts 196°
2026-04-30 18:48 31.88572 34.70174 1702 ft 174 kts 196°
2026-04-30 18:49 31.87412 34.69794 1705 ft 172 kts 196°
2026-04-30 18:49 31.86258 34.69428 1704 ft 172 kts 197°
2026-04-30 18:49 31.85110 34.69066 1701 ft 171 kts 197°
2026-04-30 18:49 31.83945 34.68740 1705 ft 171 kts 187°
2026-04-30 18:50 31.82866 34.68240 1704 ft 169 kts 229°
2026-04-30 18:50 31.82527 34.66994 1720 ft 163 kts 281°
2026-04-30 18:50 31.83155 34.65951 1730 ft 161 kts 333°
2026-04-30 18:50 31.84243 34.65658 1724 ft 162 kts 353°
2026-04-30 18:51 31.85358 34.65594 1729 ft 161 kts 10°
2026-04-30 18:51 31.86428 34.65919 1721 ft 160 kts 14°
2026-04-30 18:51 31.87492 34.66271 1716 ft 157 kts 15°
2026-04-30 18:51 31.88540 34.66619 1712 ft 156 kts 15°
2026-04-30 18:52 31.89567 34.66959 1709 ft 151 kts 16°
2026-04-30 18:52 31.90567 34.67290 1706 ft 146 kts 15°
2026-04-30 18:52 31.91539 34.67606 1703 ft 143 kts 14°
2026-04-30 18:52 31.92498 34.67914 1700 ft 143 kts 15°
2026-04-30 18:53 31.93453 34.68220 1701 ft 142 kts 15°
2026-04-30 18:53 31.94407 34.68528 1704 ft 142 kts 16°
2026-04-30 18:53 31.95358 34.68830 1699 ft 141 kts 14°
2026-04-30 18:53 31.96308 34.69138 1699 ft 141 kts 14°
2026-04-30 18:54 31.97254 34.69443 1700 ft 143 kts 15°
2026-04-30 18:54 31.98212 34.69755 1704 ft 142 kts 14°
2026-04-30 18:54 31.99156 34.70083 1697 ft 140 kts 15°
2026-04-30 18:54 32.00094 34.70397 1706 ft 140 kts 15°
2026-04-30 18:55 32.01043 34.70713 1701 ft 142 kts 15°
2026-04-30 18:55 32.02936 34.71357 1699 ft 141 kts 14°
2026-04-30 18:55 32.03874 34.71681 1697 ft 140 kts 15°
2026-04-30 18:56 32.05761 34.72308 1700 ft 142 kts 15°
2026-04-30 18:56 32.06719 34.72622 1698 ft 143 kts 13°
2026-04-30 18:56 32.07662 34.72964 1721 ft 142 kts 14°
2026-04-30 18:57 32.09519 34.73647 1717 ft 140 kts 15°
2026-04-30 18:57 32.10453 34.73973 1721 ft 141 kts 15°
2026-04-30 18:57 32.11396 34.74298 1719 ft 141 kts 14°
2026-04-30 18:58 32.13284 34.74943 1726 ft 144 kts 15°
2026-04-30 18:58 32.14245 34.75264 1731 ft 144 kts 14°
2026-04-30 18:58 32.15214 34.75593 1733 ft 145 kts 15°
2026-04-30 18:59 32.17158 34.76245 1730 ft 146 kts 15°
2026-04-30 19:00 32.19915 34.77558 1804 ft 140 kts 56°
2026-04-30 19:00 32.20055 34.78721 1666 ft 157 kts 100°
2026-04-30 19:00 32.19498 34.81104 1945 ft 135 kts 95°
2026-04-30 19:01 32.19297 34.83306 2066 ft 137 kts 90°
2026-04-30 19:01 32.19251 34.84488 2045 ft 140 kts 88°
2026-04-30 19:02 32.19007 34.86584 1627 ft 120 kts 94°
2026-04-30 19:02 32.17948 34.87650 1403 ft 132 kts 200°
2026-04-30 19:03 32.17149 34.86215 1131 ft 122 kts 291°
2026-04-30 19:03 32.17768 34.84393 331 ft 105 kts 288°
2026-04-30 19:04 32.18093 34.83256 100 ft 25 kts 288°
2026-04-30 19:04 32.18161 34.83011 97 ft 16 kts 275°
2026-04-30 19:05 32.18098 34.83062 97 ft 14 kts 127°
2026-04-30 19:05 32.18057 34.83149 98 ft 0 kts 108°